createdAt,value
2023-01-17T00:01:59.349Z,0.15
2023-01-17T00:04:44.868Z,0.40
2023-01-17T00:07:31.318Z,0.38
2023-01-17T00:10:02.918Z,0.35
2023-01-17T00:12:32.365Z,2.30
2023-01-17T00:15:01.082Z,0.38
2023-01-17T00:17:30.793Z,0.30
2023-01-17T00:20:18.665Z,0.90
2023-01-17T00:23:05.873Z,0.15
2023-01-17T00:25:55.962Z,0.88
2023-01-17T00:28:23.849Z,0.82
2023-01-17T00:30:50.744Z,0.40
2023-01-17T00:33:17.611Z,0.63
2023-01-17T00:35:44.745Z,0.57
2023-01-17T00:38:13.738Z,0.40
2023-01-17T00:40:44.575Z,0.60
2023-01-17T00:43:31.780Z,0.80
2023-01-17T00:46:17.733Z,0.80
2023-01-17T00:49:04.279Z,0.95
2023-01-17T00:51:51.380Z,0.80
2023-01-17T00:54:37.397Z,1.02
2023-01-17T00:57:24.941Z,1.48
2023-01-17T01:00:11.058Z,1.02
2023-01-17T01:02:57.091Z,1.20
2023-01-17T01:05:43.602Z,0.60
2023-01-17T01:08:37.904Z,0.90
2023-01-17T01:11:25.600Z,0.82
2023-01-17T01:14:12.736Z,1.17
2023-01-17T01:16:58.112Z,0.98
2023-01-17T01:19:44.251Z,0.95
2023-01-17T01:22:29.389Z,0.50
2023-01-17T01:25:15.437Z,1.00
2023-01-17T01:28:01.214Z,0.95
2023-01-17T01:30:49.110Z,1.08
2023-01-17T01:33:19.566Z,1.33
2023-01-17T01:35:53.980Z,0.82
2023-01-17T01:38:24.418Z,0.70
2023-01-17T01:40:54.500Z,0.57
2023-01-17T01:43:42.225Z,0.80
2023-01-17T01:46:14.646Z,0.28
2023-01-17T01:48:48.305Z,0.65
2023-01-17T01:51:23.238Z,1.08
2023-01-17T01:53:55.322Z,0.82
2023-01-17T01:56:24.755Z,1.17
2023-01-17T01:58:54.737Z,1.30
2023-01-17T02:01:24.144Z,1.40
2023-01-17T02:03:53.230Z,1.50
2023-01-17T02:06:33.402Z,0.90
2023-01-17T02:09:05.511Z,1.33
2023-01-17T02:11:34.677Z,1.30
2023-01-17T02:14:05.722Z,1.63
2023-01-17T02:16:51.452Z,1.50
2023-01-17T02:19:46.156Z,1.13
2023-01-17T02:22:42.847Z,1.05
2023-01-17T02:25:35.428Z,1.73
2023-01-17T02:28:20.263Z,1.05
2023-01-17T02:30:55.089Z,1.40
2023-01-17T02:33:33.203Z,0.70
2023-01-17T02:36:10.896Z,1.05
2023-01-17T02:38:47.732Z,1.20
2023-01-17T02:41:20.940Z,1.08
2023-01-17T02:46:24.044Z,1.98
2023-01-17T02:48:53.230Z,1.23
2023-01-17T02:51:48.825Z,1.98
2023-01-17T02:54:42.512Z,1.42
2023-01-17T02:57:30.428Z,1.02
2023-01-17T03:00:07.486Z,1.13
2023-01-17T03:02:46.869Z,1.20
2023-01-17T03:05:20.377Z,0.90
2023-01-17T03:07:50.334Z,1.67
2023-01-17T03:10:20.399Z,1.98
2023-01-17T03:12:48.915Z,1.45
2023-01-17T03:15:19.616Z,1.25
2023-01-17T03:17:52.835Z,1.20
2023-01-17T03:20:22.636Z,1.15
2023-01-17T03:22:50.795Z,1.33
2023-01-17T03:25:19.570Z,1.13
2023-01-17T03:27:49.202Z,1.13
2023-01-17T03:30:21.553Z,1.33
2023-01-17T03:32:51.884Z,1.58
2023-01-17T03:35:20.010Z,1.40
2023-01-17T03:37:48.164Z,1.10
2023-01-17T03:40:18.609Z,1.30
2023-01-17T03:42:47.064Z,1.23
2023-01-17T03:45:16.566Z,1.10
2023-01-17T03:47:44.948Z,1.13
2023-01-17T03:50:15.867Z,1.20
2023-01-17T03:52:44.197Z,0.85
2023-01-17T03:55:12.234Z,0.88
2023-01-17T03:57:40.371Z,2.33
2023-01-17T04:00:11.114Z,1.30
2023-01-17T04:02:39.362Z,1.05
2023-01-17T04:05:08.090Z,1.35
2023-01-17T04:07:38.021Z,0.90
2023-01-17T04:10:08.626Z,1.23
2023-01-17T04:12:37.406Z,1.13
2023-01-17T04:15:06.053Z,1.20
2023-01-17T04:17:34.320Z,1.13
2023-01-17T04:20:02.363Z,0.80
2023-01-17T04:22:31.602Z,1.10
2023-01-17T04:25:00.992Z,0.90
2023-01-17T04:27:28.931Z,1.52
2023-01-17T04:29:56.881Z,1.52
2023-01-17T04:32:24.949Z,1.60
2023-01-17T04:34:53.100Z,1.15
2023-01-17T04:37:21.072Z,1.48
2023-01-17T04:39:49.683Z,1.05
2023-01-17T04:42:21.237Z,1.33
2023-01-17T04:44:49.576Z,1.65
2023-01-17T04:47:17.846Z,1.17
2023-01-17T04:49:45.923Z,1.38
2023-01-17T04:52:15.062Z,1.15
2023-01-17T04:54:42.995Z,1.42
2023-01-17T04:57:11.246Z,1.17
2023-01-17T04:59:40.679Z,0.80
2023-01-17T05:02:08.895Z,1.20
2023-01-17T05:04:37.153Z,0.98
2023-01-17T05:07:06.994Z,1.38
2023-01-17T05:09:35.760Z,1.40
2023-01-17T05:12:03.858Z,1.45
2023-01-17T05:14:34.314Z,1.60
2023-01-17T05:17:04.504Z,0.82
2023-01-17T05:19:32.629Z,0.80
2023-01-17T05:22:04.362Z,0.85
2023-01-17T05:24:32.933Z,1.23
2023-01-17T05:27:03.126Z,0.80
2023-01-17T05:29:31.994Z,0.73
2023-01-17T05:31:59.958Z,1.20
2023-01-17T05:34:29.591Z,0.85
2023-01-17T05:36:58.238Z,1.17
2023-01-17T05:39:27.191Z,0.80
2023-01-17T05:41:55.238Z,1.52
2023-01-17T05:44:23.533Z,0.73
2023-01-17T05:46:51.827Z,1.15
2023-01-17T05:49:20.371Z,1.63
2023-01-17T05:51:49.809Z,0.75
2023-01-17T05:54:18.430Z,0.60
2023-01-17T05:56:46.749Z,1.20
2023-01-17T05:59:17.254Z,1.52
2023-01-17T06:01:47.010Z,0.82
2023-01-17T06:04:15.214Z,1.20
2023-01-17T06:06:43.281Z,0.57
2023-01-17T06:09:12.906Z,1.10
2023-01-17T06:11:41.055Z,1.13
2023-01-17T06:14:09.671Z,1.00
2023-01-17T06:16:37.662Z,1.15
2023-01-17T06:19:06.852Z,1.05
2023-01-17T06:21:34.913Z,0.93
2023-01-17T06:24:04.334Z,0.80
2023-01-17T06:26:34.531Z,1.83
2023-01-17T06:29:04.935Z,1.10
2023-01-17T06:31:33.264Z,1.02
2023-01-17T06:34:04.660Z,1.02
2023-01-17T06:36:34.136Z,0.93
2023-01-17T06:39:02.489Z,0.95
2023-01-17T06:41:31.005Z,1.17
2023-01-17T06:44:00.793Z,0.68
2023-01-17T06:46:31.916Z,1.75
2023-01-17T06:49:00.191Z,1.23
2023-01-17T06:51:28.949Z,1.58
2023-01-17T06:53:57.017Z,1.23
2023-01-17T06:56:25.079Z,1.30
2023-01-17T06:58:53.323Z,1.35
2023-01-17T07:01:22.928Z,1.23
2023-01-17T07:03:52.447Z,1.98
2023-01-17T07:06:21.006Z,1.63
2023-01-17T07:08:49.482Z,1.80
2023-01-17T07:11:17.629Z,1.17
2023-01-17T07:13:45.595Z,1.40
2023-01-17T07:16:13.690Z,1.73
2023-01-17T07:18:43.831Z,1.77
2023-01-17T07:21:15.259Z,1.17
2023-01-17T07:23:43.575Z,1.42
2023-01-17T07:26:11.797Z,1.50
2023-01-17T07:28:39.759Z,1.10
2023-01-17T07:31:08.845Z,1.23
2023-01-17T07:33:37.109Z,0.80
2023-01-17T07:36:09.447Z,1.65
2023-01-17T07:38:37.687Z,0.70
2023-01-17T07:41:06.170Z,1.30
2023-01-17T07:43:35.669Z,0.75
2023-01-17T07:46:06.368Z,1.23
2023-01-17T07:48:34.786Z,1.00
2023-01-17T07:51:02.931Z,0.98
2023-01-17T07:53:33.441Z,0.68
2023-01-17T07:56:03.769Z,1.30
2023-01-17T07:58:32.648Z,0.85
2023-01-17T08:01:06.275Z,0.85
2023-01-17T08:03:39.883Z,1.10
2023-01-17T08:06:15.982Z,0.57
2023-01-17T08:08:46.399Z,0.80
2023-01-17T08:11:15.519Z,1.02
2023-01-17T08:13:43.589Z,1.33
2023-01-17T08:16:12.483Z,0.90
2023-01-17T08:18:40.914Z,0.95
2023-01-17T08:21:15.332Z,0.85
2023-01-17T08:23:45.051Z,1.17
2023-01-17T08:26:21.532Z,0.85
2023-01-17T08:28:50.651Z,1.20
2023-01-17T08:31:19.925Z,0.90
2023-01-17T08:33:48.032Z,1.80
2023-01-17T08:36:16.224Z,1.10
2023-01-17T08:38:46.138Z,0.98
2023-01-17T08:41:14.200Z,0.95
2023-01-17T08:43:42.127Z,1.25
2023-01-17T08:46:11.011Z,0.73
2023-01-17T08:48:39.390Z,1.17
2023-01-17T08:51:07.711Z,1.20
2023-01-17T08:53:36.149Z,1.60
2023-01-17T08:56:07.777Z,1.70
2023-01-17T08:58:36.115Z,1.90
2023-01-17T09:01:08.385Z,1.63
2023-01-17T09:03:38.385Z,1.73
2023-01-17T09:06:10.055Z,1.33
2023-01-17T09:08:38.772Z,1.10
2023-01-17T09:11:09.382Z,1.63
2023-01-17T09:13:38.054Z,1.98
2023-01-17T09:16:07.322Z,1.15
2023-01-17T09:18:37.028Z,1.55
2023-01-17T09:21:11.922Z,1.00
2023-01-17T09:23:40.324Z,0.80
2023-01-17T09:26:23.947Z,1.65
2023-01-17T09:28:53.618Z,1.35
2023-01-17T09:31:24.363Z,1.70
2023-01-17T09:33:54.530Z,1.50
2023-01-17T09:36:23.914Z,1.33
2023-01-17T09:38:57.499Z,1.13
2023-01-17T09:41:30.012Z,0.95
2023-01-17T09:44:07.409Z,0.70
2023-01-17T09:46:40.653Z,0.90
2023-01-17T09:49:13.075Z,0.82
2023-01-17T09:51:42.368Z,0.60
2023-01-17T09:54:21.815Z,0.38
2023-01-17T09:57:02.348Z,0.13
2023-01-17T09:59:42.834Z,0.20
2023-01-17T10:02:34.142Z,0.38
2023-01-17T10:05:26.328Z,0.20
2023-01-17T10:08:09.594Z,0.10
2023-01-17T10:10:43.312Z,0.20
2023-01-17T10:13:28.674Z,0.20
2023-01-17T10:16:19.097Z,0.68
2023-01-17T10:19:13.976Z,0.40
2023-01-17T10:22:02.209Z,0.57
2023-01-17T10:25:08.573Z,0.38
2023-01-17T10:27:42.706Z,0.28
2023-01-17T10:30:19.669Z,0.35
2023-01-17T10:32:50.806Z,0.65
2023-01-17T10:35:25.435Z,0.57
2023-01-17T10:37:57.033Z,0.40
2023-01-17T10:40:33.539Z,0.63
2023-01-17T10:43:07.229Z,0.35
2023-01-17T10:45:41.875Z,0.30
2023-01-17T10:48:17.836Z,0.35
2023-01-17T10:50:58.159Z,0.28
2023-01-17T10:53:42.507Z,0.45
2023-01-17T10:56:14.132Z,0.30
2023-01-17T10:58:42.317Z,0.40
2023-01-17T11:01:19.345Z,0.57
2023-01-17T11:03:51.488Z,0.60
2023-01-17T11:06:21.347Z,0.60
2023-01-17T11:08:54.833Z,0.60
2023-01-17T11:11:25.775Z,0.47
2023-01-17T11:13:55.641Z,0.68
2023-01-17T11:16:28.652Z,0.40
2023-01-17T11:19:09.970Z,0.43
2023-01-17T11:21:40.874Z,0.63
2023-01-17T11:24:18.773Z,1.15
2023-01-17T11:26:49.433Z,1.10
2023-01-17T11:29:31.751Z,0.80
2023-01-17T11:32:28.101Z,0.80
2023-01-17T11:35:21.723Z,0.75
2023-01-17T11:37:53.893Z,0.77
2023-01-17T11:40:27.761Z,0.80
2023-01-17T11:43:19.747Z,0.98
2023-01-17T11:46:01.194Z,0.88
2023-01-17T11:48:36.391Z,0.85
2023-01-17T11:51:12.498Z,1.33
2023-01-17T11:53:41.874Z,0.77
2023-01-17T11:56:12.936Z,0.95
2023-01-17T11:58:43.731Z,1.13
2023-01-17T12:01:32.957Z,0.73
2023-01-17T12:04:32.069Z,0.80
2023-01-17T12:07:11.947Z,1.33
2023-01-17T12:09:46.425Z,0.98
2023-01-17T12:12:39.717Z,0.93
2023-01-17T12:15:23.151Z,1.50
2023-01-17T12:18:13.565Z,1.10
2023-01-17T12:20:51.807Z,1.20
2023-01-17T12:23:48.626Z,0.75
2023-01-17T12:26:30.525Z,0.98
2023-01-17T12:29:30.572Z,0.90
2023-01-17T12:32:11.428Z,1.15
2023-01-17T12:34:47.185Z,1.17
2023-01-17T12:37:22.032Z,1.00
2023-01-17T12:39:59.520Z,1.02
2023-01-17T12:42:34.141Z,0.93
2023-01-17T12:45:09.385Z,1.57
2023-01-17T12:47:43.346Z,1.05
2023-01-17T12:50:23.632Z,1.30
2023-01-17T12:53:43.610Z,0.93
2023-01-17T12:56:19.173Z,0.68
2023-01-17T12:58:52.456Z,0.93
2023-01-17T13:01:29.528Z,1.10
2023-01-17T13:04:08.249Z,1.00
2023-01-17T13:06:51.007Z,0.90
2023-01-17T13:09:23.524Z,0.67
2023-01-17T13:11:58.191Z,1.13
2023-01-17T13:14:27.898Z,1.35
2023-01-17T13:16:59.196Z,1.10
2023-01-17T13:19:40.914Z,0.80
2023-01-17T13:22:17.358Z,0.55
2023-01-17T13:24:55.423Z,0.80
2023-01-17T13:28:06.360Z,0.88
2023-01-17T13:30:57.550Z,0.50
2023-01-17T13:33:39.517Z,0.80
2023-01-17T13:36:25.586Z,0.73
2023-01-17T13:39:13.932Z,0.75
2023-01-17T13:41:50.605Z,1.23
2023-01-17T13:44:22.938Z,0.60
2023-01-17T13:47:00.781Z,0.57
2023-01-17T13:49:35.705Z,0.70
2023-01-17T13:52:10.652Z,0.40
2023-01-17T13:54:50.931Z,0.70
2023-01-17T13:57:42.289Z,1.00
2023-01-17T14:00:59.366Z,0.90
2023-01-17T14:04:08.201Z,0.50
2023-01-17T14:06:41.909Z,0.90
2023-01-17T14:09:17.776Z,0.73
2023-01-17T14:12:05.701Z,0.88
2023-01-17T14:14:44.307Z,1.60
2023-01-17T14:17:49.326Z,1.52
2023-01-17T14:20:53.584Z,1.05
2023-01-17T14:25:59.439Z,0.95
2023-01-17T14:28:32.768Z,0.93
2023-01-17T14:31:03.781Z,0.65
2023-01-17T14:33:37.329Z,1.00
2023-01-17T14:38:43.363Z,0.80
2023-01-17T14:41:16.300Z,0.98
2023-01-17T14:43:45.377Z,0.80
2023-01-17T14:46:19.846Z,0.80
2023-01-17T14:48:47.943Z,0.85
2023-01-17T14:51:22.059Z,0.93
2023-01-17T14:53:55.456Z,1.23
2023-01-17T14:56:24.197Z,0.75
2023-01-17T14:59:07.566Z,1.30
2023-01-17T15:01:36.899Z,1.13
2023-01-17T15:04:05.639Z,0.80
2023-01-17T15:06:39.420Z,0.77
2023-01-17T15:09:12.088Z,0.70
2023-01-17T15:11:40.505Z,1.08
2023-01-17T15:14:09.160Z,0.75
2023-01-17T15:16:41.072Z,1.02
2023-01-17T15:19:13.449Z,1.27
2023-01-17T15:21:44.990Z,0.90
2023-01-17T15:24:20.871Z,1.30
2023-01-17T15:26:50.063Z,1.05
2023-01-17T15:29:24.393Z,1.48
2023-01-17T15:31:55.699Z,0.98
2023-01-17T15:34:29.798Z,0.82
2023-01-17T15:37:03.124Z,0.82
2023-01-17T15:39:34.030Z,1.15
2023-01-17T15:42:05.164Z,1.00
2023-01-17T15:44:47.543Z,0.63
2023-01-17T15:49:56.070Z,0.80
2023-01-17T15:52:25.747Z,0.90
2023-01-17T15:54:54.790Z,0.70
2023-01-17T15:57:28.577Z,0.57
2023-01-17T15:59:59.967Z,1.25
2023-01-17T16:02:38.788Z,0.77
2023-01-17T16:05:44.433Z,0.80
2023-01-17T16:08:33.895Z,0.82
2023-01-17T16:11:03.887Z,1.02
2023-01-17T16:13:33.635Z,1.00
2023-01-17T16:16:17.029Z,1.30
2023-01-17T16:18:46.622Z,0.82
2023-01-17T16:21:20.989Z,0.82
2023-01-17T16:23:51.712Z,0.90
2023-01-17T16:26:20.680Z,0.93
2023-01-17T16:28:49.917Z,0.65
2023-01-17T16:31:17.995Z,0.60
2023-01-17T16:33:46.908Z,1.05
2023-01-17T16:36:16.538Z,1.30
2023-01-17T16:38:45.731Z,0.88
2023-01-17T16:41:15.310Z,1.10
2023-01-17T16:43:43.445Z,1.15
2023-01-17T16:46:13.914Z,0.70
2023-01-17T16:48:42.034Z,0.98
2023-01-17T16:51:10.352Z,1.10
2023-01-17T16:53:38.461Z,0.75
2023-01-17T16:56:10.201Z,0.95
2023-01-17T16:58:39.734Z,0.70
2023-01-17T17:01:11.337Z,1.40
2023-01-17T17:03:39.515Z,0.95
2023-01-17T17:06:08.788Z,0.68
2023-01-17T17:08:38.229Z,0.77
2023-01-17T17:11:15.235Z,1.15
2023-01-17T17:13:46.412Z,1.00
2023-01-17T17:16:17.786Z,1.10
2023-01-17T17:18:48.569Z,1.38
2023-01-17T17:21:17.017Z,1.50
2023-01-17T17:23:46.408Z,1.10
2023-01-17T17:26:16.186Z,1.33
2023-01-17T17:28:45.747Z,1.42
2023-01-17T17:31:13.769Z,1.10
2023-01-17T17:33:42.224Z,1.40
2023-01-17T17:36:11.113Z,1.65
2023-01-17T17:38:51.114Z,1.52
2023-01-17T17:41:21.529Z,1.70
2023-01-17T17:43:52.355Z,1.98
2023-01-17T17:46:21.254Z,1.73
2023-01-17T17:48:50.005Z,2.00
2023-01-17T17:51:23.486Z,1.83
2023-01-17T17:53:52.756Z,1.60
2023-01-17T17:56:21.385Z,1.58
2023-01-17T17:58:51.351Z,1.50
2023-01-17T18:01:19.594Z,1.67
2023-01-17T18:03:47.746Z,1.08
2023-01-17T18:06:17.513Z,1.65
2023-01-17T18:08:45.933Z,1.70
2023-01-17T18:11:17.793Z,1.30
2023-01-17T18:13:50.393Z,1.67
2023-01-17T18:16:23.338Z,2.00
2023-01-17T18:18:53.163Z,1.70
2023-01-17T18:21:23.839Z,1.70
2023-01-17T18:23:54.772Z,1.77
2023-01-17T18:26:25.000Z,1.42
2023-01-17T18:28:54.361Z,1.83
2023-01-17T18:31:25.186Z,2.00
2023-01-17T18:33:54.106Z,1.60
2023-01-17T18:36:24.270Z,1.80
2023-01-17T18:38:53.566Z,2.00
2023-01-17T18:41:24.270Z,1.63
2023-01-17T18:43:52.787Z,1.88
2023-01-17T18:46:23.247Z,1.88
2023-01-17T18:48:51.846Z,2.28
2023-01-17T18:51:21.847Z,2.00
2023-01-17T18:53:50.310Z,1.45
2023-01-17T18:56:20.870Z,2.22
2023-01-17T18:58:50.019Z,1.77
2023-01-17T19:01:19.868Z,1.77
2023-01-17T19:03:51.027Z,1.83
2023-01-17T19:06:20.890Z,2.17
2023-01-17T19:08:51.660Z,1.75
2023-01-17T19:11:20.644Z,1.70
2023-01-17T19:13:50.248Z,1.90
2023-01-17T19:16:21.163Z,2.08
2023-01-17T19:18:50.655Z,1.88
2023-01-17T19:21:21.759Z,1.90
2023-01-17T19:23:50.648Z,1.73
2023-01-17T19:26:20.405Z,2.15
2023-01-17T19:28:49.709Z,1.75
2023-01-17T19:31:20.435Z,1.75
2023-01-17T19:33:51.297Z,2.03
2023-01-17T19:36:21.863Z,2.30
2023-01-17T19:39:03.492Z,2.08
2023-01-17T19:41:32.693Z,2.08
2023-01-17T19:44:03.342Z,2.75
2023-01-17T19:46:32.592Z,2.10
2023-01-17T19:49:03.389Z,1.90
2023-01-17T19:51:32.300Z,2.85
2023-01-17T19:54:01.786Z,1.95
2023-01-17T19:56:30.948Z,2.88
2023-01-17T19:59:01.630Z,2.45
2023-01-17T20:01:32.732Z,2.00
2023-01-17T20:04:05.344Z,2.13
2023-01-17T20:06:36.223Z,1.92
2023-01-17T20:09:06.517Z,2.22
2023-01-17T20:11:35.422Z,1.83
2023-01-17T20:14:06.473Z,2.45
2023-01-17T20:16:36.943Z,2.28
2023-01-17T20:19:06.836Z,2.15
2023-01-17T20:21:35.261Z,2.00
2023-01-17T20:24:04.770Z,2.08
2023-01-17T20:26:37.465Z,2.08
2023-01-17T20:29:09.977Z,2.28
2023-01-17T20:31:39.059Z,2.13
2023-01-17T20:34:11.688Z,1.90
2023-01-17T20:36:41.718Z,1.92
2023-01-17T20:39:11.958Z,2.05
2023-01-17T20:41:41.852Z,1.70
2023-01-17T20:44:13.815Z,2.33
2023-01-17T20:46:42.483Z,1.80
2023-01-17T20:49:14.891Z,2.40
2023-01-17T20:51:44.235Z,1.60
2023-01-17T20:54:14.417Z,2.03
2023-01-17T20:56:43.040Z,1.73
2023-01-17T20:59:15.178Z,1.75
2023-01-17T21:01:44.958Z,2.00
2023-01-17T21:04:14.903Z,1.92
2023-01-17T21:06:44.375Z,1.98
2023-01-17T21:09:14.495Z,2.90
2023-01-17T21:11:42.635Z,2.10
2023-01-17T21:14:11.027Z,1.95
2023-01-17T21:16:39.558Z,2.13
2023-01-17T21:19:12.284Z,1.90
2023-01-17T21:21:41.676Z,1.95
2023-01-17T21:24:16.503Z,2.40
2023-01-17T21:26:46.045Z,2.03
2023-01-17T21:29:15.974Z,2.10
2023-01-17T21:31:45.132Z,2.38
2023-01-17T21:34:14.664Z,2.22
2023-01-17T21:36:44.435Z,1.70
2023-01-17T21:39:15.725Z,2.03
2023-01-17T21:41:46.662Z,2.25
2023-01-17T21:44:16.748Z,2.30
2023-01-17T21:46:44.620Z,2.10
2023-01-17T21:49:13.653Z,2.20
2023-01-17T21:51:59.908Z,2.80
2023-01-17T21:54:48.647Z,2.15
2023-01-17T21:57:35.433Z,2.40
2023-01-17T22:00:06.554Z,2.63
2023-01-17T22:02:40.152Z,1.92
2023-01-17T22:05:11.592Z,2.22
2023-01-17T22:07:40.406Z,2.20
2023-01-17T22:10:13.820Z,2.22
2023-01-17T22:15:11.563Z,2.25
2023-01-17T22:17:41.142Z,2.35
2023-01-17T22:20:11.567Z,2.65
2023-01-17T22:22:39.882Z,2.47
2023-01-17T22:25:09.158Z,2.60
2023-01-17T22:27:38.644Z,3.05
2023-01-17T22:30:13.394Z,2.45
2023-01-17T22:32:42.407Z,2.60
2023-01-17T22:35:11.937Z,2.95
2023-01-17T22:37:41.392Z,2.55
2023-01-17T22:40:12.678Z,2.42
2023-01-17T22:42:43.395Z,2.60
2023-01-17T22:45:13.573Z,2.35
2023-01-17T22:47:41.863Z,2.70
2023-01-17T22:50:12.012Z,2.67
2023-01-17T22:52:39.991Z,2.60
2023-01-17T22:55:08.660Z,2.35
2023-01-17T22:57:36.588Z,2.53
2023-01-17T23:00:14.682Z,2.35
2023-01-17T23:02:43.587Z,2.50
2023-01-17T23:05:15.564Z,2.30
2023-01-17T23:07:44.973Z,2.53
2023-01-17T23:10:35.381Z,2.65
2023-01-17T23:13:03.539Z,2.30
2023-01-17T23:15:50.908Z,2.72
2023-01-17T23:18:36.479Z,2.83
2023-01-17T23:21:05.089Z,2.60
2023-01-17T23:23:33.544Z,2.40
2023-01-17T23:26:02.387Z,2.63
2023-01-17T23:28:29.626Z,2.47
2023-01-17T23:31:06.279Z,2.03
2023-01-17T23:33:34.711Z,2.67
2023-01-17T23:36:03.239Z,2.60
2023-01-17T23:38:34.293Z,2.80
2023-01-17T23:41:21.263Z,2.60
2023-01-17T23:43:53.494Z,2.67
2023-01-17T23:46:24.032Z,2.95
2023-01-17T23:48:52.254Z,2.97
2023-01-17T23:51:20.230Z,3.30
2023-01-17T23:53:48.362Z,3.10
2023-01-17T23:56:18.554Z,3.28
2023-01-17T23:58:46.746Z,2.65
